Aviation Digital Data Service (ADDS)

Output produced by TAFs form (2121 UTC 19 November 2017)
found at http://aviationweather.gov/adds/tafs/
 
KSAF 191721Z 1918/2018 36012KT P6SM SCT250 
     FM192000 26008KT P6SM SCT250 
     FM200200 35007KT P6SM FEW250 
     FM201100 36012KT P6SM FEW250